首页
METAR-TAF:

METAR-TAF

机场 :

北九州機場

北九州, 日本

纬度: 33-50N, 经度: 130-57E, 海拔: 3米

当前天气观测

该预报发布于1小时和24分钟前的07:00 UTC
风速3节,风向东转东南
温度 11°C
湿度 71%
气压 1020 hPa
能见度10公里或以上
少量云层高于4000英尺
多云层高于15000英尺
多云

METAR: RJFR 040700Z 12003KT 9999 FEW040 BKN150 BKN/// 11/06 Q1020

时间: 17:24 (08:24 UTC)

预报

该预报发布于3小时和17分钟前的05:07 UTC
预报有效从04日的 06点(UTC)到 05日的 12点(UTC)
风速6节,风向东转东南
能见度10公里或以上
少量云层高于3000英尺
成为
从 04日的 18点(UTC)到 04日的 21点(UTC)
风速20节,风向
短暂存在
从 04日的 21点(UTC)到 05日的 00点(UTC)
能見度: 4000
少量云层高于300英尺
散云层高于500英尺
多云层高于800英尺
阵雨, 轻雾
短暂存在
从 05日的 00点(UTC)到 05日的 06点(UTC)
少量云层高于300英尺
散云层高于500英尺
多云层高于800英尺
短暂存在
从 05日的 06点(UTC)到 05日的 12点(UTC)
能見度: 3000
少量云层高于300英尺
散云层高于500英尺
多云层高于800英尺
阵雨, 轻雾
成为
从 05日的 09点(UTC)到 05日的 12点(UTC)
风速12节,风向北转东北

TAF: RJFR 040507Z 0406/0512 11006KT 9999 FEW030 BECMG 0418/0421 09020KT TEMPO 0421/0500 4000 SHRA BR FEW003 SCT005 BKN008 TEMPO 0500/0506 FEW003 SCT005 BKN008 TEMPO 0506/0512 3000 SHRA BR FEW003 SCT005 BKN008 BECMG 0509/0512 02012KT

超过4000个机场的气象观测和天气预报(METAR&TAF报告)。

可查询的气象台以黄色和红色小点在地图上表示。

将鼠标移到小点上方,可查看气象台名称。

然后点击查看天气观测和预报。

如需切换地图:点击带黑十字的绿色按钮放大地图;点击带横线的绿色按钮缩小地图;或者点击绿色箭头查看邻近地区的地图。


METAR-TAF: